createdAt,value
2023-05-02T08:35:19.895Z,10.40
2023-05-02T08:36:21.325Z,10.42
2023-05-02T08:37:23.090Z,10.48
2023-05-02T08:38:24.542Z,10.48
2023-05-02T08:39:26.056Z,10.73
2023-05-02T08:40:40.919Z,11.13
2023-05-02T08:41:42.876Z,11.10
2023-05-02T08:42:44.795Z,11.30
2023-05-02T08:43:46.623Z,11.46
2023-05-02T08:44:48.944Z,11.54
2023-05-02T08:45:54.223Z,11.92
2023-05-02T08:46:57.289Z,11.96
2023-05-02T08:48:00.212Z,11.95
2023-05-02T08:49:03.173Z,12.12
2023-05-02T08:50:06.442Z,12.38
2023-05-02T08:51:13.725Z,12.46
2023-05-02T08:52:17.094Z,12.47
2023-05-02T08:53:19.023Z,12.36
2023-05-02T08:54:21.308Z,12.77
2023-05-02T08:55:27.751Z,13.08
2023-05-02T08:56:29.658Z,13.70
2023-05-02T08:57:31.849Z,14.09
2023-05-02T08:58:33.868Z,14.24
2023-05-02T08:59:35.658Z,14.35
2023-05-02T09:00:42.561Z,14.30
2023-05-02T09:01:46.215Z,14.51
2023-05-02T09:03:11.707Z,14.89
2023-05-02T09:04:13.468Z,14.95
2023-05-02T09:05:20.366Z,14.91
2023-05-02T09:06:22.881Z,15.40
2023-05-02T09:07:24.310Z,15.73
2023-05-02T09:08:25.977Z,15.69
2023-05-02T09:09:29.122Z,15.83
2023-05-02T09:10:30.965Z,15.49
2023-05-02T09:11:32.403Z,15.30
2023-05-02T09:12:33.842Z,15.14
2023-05-02T09:13:43.008Z,15.24
2023-05-02T09:14:45.161Z,15.29
2023-05-02T09:15:58.295Z,15.31
2023-05-02T09:17:00.890Z,15.00
2023-05-02T09:18:02.851Z,14.77
2023-05-02T09:19:04.257Z,15.04
2023-05-02T09:20:08.494Z,15.06
2023-05-02T09:21:15.898Z,15.02
2023-05-02T09:22:23.394Z,14.79
2023-05-02T09:23:51.012Z,14.46
2023-05-02T09:24:55.526Z,14.58
2023-05-02T09:25:56.943Z,14.57
2023-05-02T09:26:58.709Z,14.82
2023-05-02T09:28:01.846Z,14.98
2023-05-02T09:29:04.767Z,14.75
2023-05-02T09:30:22.348Z,14.87
2023-05-02T09:31:54.934Z,14.45
2023-05-02T09:32:58.002Z,14.52
2023-05-02T09:34:11.699Z,15.08
2023-05-02T09:35:13.705Z,15.06
2023-05-02T09:36:16.819Z,15.10
2023-05-02T09:37:36.739Z,15.21
2023-05-02T09:38:38.781Z,15.54
2023-05-02T09:39:40.292Z,15.51
2023-05-02T09:40:54.643Z,15.38
2023-05-02T09:41:56.919Z,15.02
2023-05-02T09:42:58.434Z,15.05
2023-05-02T09:43:59.840Z,14.84
2023-05-02T09:45:01.506Z,14.58
2023-05-02T09:46:10.573Z,14.92
2023-05-02T09:47:26.448Z,14.76
2023-05-02T09:48:29.488Z,14.84
2023-05-02T09:49:39.907Z,14.61
2023-05-02T09:50:41.381Z,14.59
2023-05-02T09:51:43.965Z,14.48
2023-05-02T09:53:01.476Z,14.32
2023-05-02T09:54:03.261Z,14.57
2023-05-02T09:55:21.089Z,14.51
2023-05-02T09:56:23.910Z,14.56
2023-05-02T09:57:41.809Z,15.31
2023-05-02T09:58:43.341Z,15.58
2023-05-02T09:59:55.688Z,15.94
2023-05-02T10:00:58.358Z,15.75
2023-05-02T10:02:02.585Z,15.71
2023-05-02T10:03:06.952Z,16.35
2023-05-02T10:04:16.870Z,16.64
2023-05-02T10:05:19.914Z,16.34
2023-05-02T10:06:22.089Z,16.11
2023-05-02T10:07:23.800Z,16.16
2023-05-02T10:08:29.378Z,16.44
2023-05-02T10:09:33.037Z,15.83
2023-05-02T10:10:40.747Z,15.74
2023-05-02T10:11:43.922Z,15.94
2023-05-02T10:12:47.933Z,16.00
2023-05-02T10:13:49.491Z,16.14
2023-05-02T10:14:58.455Z,15.83
2023-05-02T10:16:05.171Z,15.98
2023-05-02T10:17:21.371Z,16.02
2023-05-02T10:18:48.197Z,15.34
2023-05-02T10:20:06.336Z,15.17
2023-05-02T10:21:12.732Z,14.92
2023-05-02T10:22:14.497Z,14.82
2023-05-02T10:23:16.991Z,14.95
2023-05-02T10:24:18.806Z,15.04
2023-05-02T10:25:20.936Z,14.95
2023-05-02T10:26:23.392Z,14.83
2023-05-02T10:27:25.432Z,14.74
2023-05-02T10:28:28.091Z,14.39
2023-05-02T10:29:31.104Z,14.24
2023-05-02T10:30:34.034Z,14.13
2023-05-02T10:31:37.710Z,14.50
2023-05-02T10:32:40.454Z,14.85
2023-05-02T10:33:41.936Z,15.02
2023-05-02T10:34:44.187Z,15.58
2023-05-02T10:35:48.809Z,15.48
2023-05-02T10:36:50.203Z,15.86
2023-05-02T10:37:52.479Z,16.36
2023-05-02T10:38:55.375Z,16.66
2023-05-02T10:39:56.794Z,17.35
2023-05-02T10:41:01.964Z,17.33
2023-05-02T10:42:06.134Z,17.58
2023-05-02T10:43:08.382Z,17.25
2023-05-02T10:44:10.980Z,16.75
2023-05-02T10:45:31.916Z,17.45
2023-05-02T10:46:38.328Z,17.34
2023-05-02T10:47:40.734Z,17.35
2023-05-02T10:48:42.189Z,17.28
2023-05-02T10:49:54.141Z,17.38
2023-05-02T10:50:58.451Z,17.66
2023-05-02T10:52:19.774Z,18.29
2023-05-02T10:53:24.579Z,18.73
2023-05-02T10:54:26.188Z,18.68
2023-05-02T10:55:27.652Z,18.29
2023-05-02T10:56:29.338Z,18.26
2023-05-02T10:57:30.965Z,18.11
2023-05-02T10:58:32.805Z,18.46
2023-05-02T10:59:43.590Z,19.15
2023-05-02T11:00:45.060Z,19.61
2023-05-02T11:01:46.473Z,19.37
2023-05-02T11:02:48.745Z,19.33
2023-05-02T11:03:55.329Z,18.70
2023-05-02T11:05:09.357Z,18.95
2023-05-02T11:06:10.822Z,19.01
2023-05-02T11:07:18.894Z,18.79
2023-05-02T11:08:21.214Z,18.57
2023-05-02T11:09:24.361Z,19.15
2023-05-02T11:10:26.811Z,18.75
2023-05-02T11:11:42.338Z,18.75
2023-05-02T11:12:48.992Z,19.41
2023-05-02T11:13:51.289Z,18.55
2023-05-02T11:14:52.729Z,18.22
2023-05-02T11:15:55.974Z,18.12
2023-05-02T11:16:57.479Z,18.19
2023-05-02T11:18:03.060Z,17.91
2023-05-02T11:19:04.527Z,17.71
2023-05-02T11:20:06.024Z,17.58
2023-05-02T11:21:31.155Z,17.54
2023-05-02T11:22:34.057Z,17.78
2023-05-02T11:23:36.890Z,17.41
2023-05-02T11:24:44.602Z,17.46
2023-05-02T11:25:47.382Z,17.55
2023-05-02T11:26:49.767Z,17.16
2023-05-02T11:27:51.168Z,17.19
2023-05-02T11:28:52.809Z,16.85
2023-05-02T11:29:59.008Z,16.57
2023-05-02T11:31:00.561Z,16.55
2023-05-02T11:32:02.104Z,16.33
2023-05-02T11:33:06.560Z,16.25
2023-05-02T11:34:08.071Z,16.32
2023-05-02T11:35:18.196Z,16.25
2023-05-02T11:36:30.498Z,16.56
2023-05-02T11:37:33.131Z,16.61
2023-05-02T11:38:39.174Z,16.49
2023-05-02T11:39:41.626Z,16.68
2023-05-02T11:40:51.130Z,17.33
2023-05-02T11:41:54.576Z,17.52
2023-05-02T11:42:57.429Z,17.63
2023-05-02T11:44:05.157Z,17.58
2023-05-02T11:45:07.025Z,17.48
2023-05-02T11:46:09.153Z,17.58
2023-05-02T11:47:10.699Z,18.34
2023-05-02T11:48:14.454Z,18.40
2023-05-02T11:49:16.389Z,18.59
2023-05-02T11:50:18.365Z,19.32
2023-05-02T11:51:23.359Z,19.48
2023-05-02T11:52:24.911Z,19.62
2023-05-02T11:53:29.329Z,18.93
2023-05-02T11:54:30.943Z,18.52
2023-05-02T11:55:32.491Z,18.35
2023-05-02T11:56:33.962Z,18.34
2023-05-02T11:57:35.678Z,18.66
2023-05-02T11:58:37.139Z,18.63
2023-05-02T11:59:54.829Z,18.55
2023-05-02T12:00:57.148Z,19.11
2023-05-02T12:01:58.485Z,19.40
2023-05-02T12:02:59.929Z,19.21
2023-05-02T12:04:07.398Z,19.39
2023-05-02T12:05:11.039Z,19.58
2023-05-02T12:06:19.006Z,19.65
2023-05-02T12:07:34.809Z,20.30
2023-05-02T12:08:36.442Z,20.11
2023-05-02T12:09:53.723Z,19.67
2023-05-02T12:10:57.055Z,20.12
2023-05-02T12:11:58.508Z,19.59
2023-05-02T12:13:04.672Z,19.67
2023-05-02T12:14:06.825Z,20.18
2023-05-02T12:15:13.075Z,19.80
2023-05-02T12:16:15.119Z,19.36
2023-05-02T12:17:17.215Z,18.44
2023-05-02T12:18:22.067Z,18.38
2023-05-02T12:19:23.859Z,18.59
2023-05-02T12:20:25.768Z,18.64
2023-05-02T12:21:30.600Z,18.56
2023-05-02T12:22:32.212Z,18.91
2023-05-02T12:23:35.304Z,18.50
2023-05-02T12:24:37.976Z,18.71
2023-05-02T12:25:43.397Z,19.11
2023-05-02T12:26:44.861Z,19.47
2023-05-02T12:27:59.684Z,19.73
2023-05-02T12:29:02.644Z,20.01
2023-05-02T12:30:05.476Z,20.32
2023-05-02T12:31:11.047Z,19.87
2023-05-02T12:32:13.670Z,19.97
2023-05-02T12:33:17.127Z,19.92
2023-05-02T12:34:38.581Z,19.79
2023-05-02T12:35:40.013Z,20.01
2023-05-02T12:36:45.370Z,19.82
2023-05-02T12:37:47.427Z,20.42
2023-05-02T12:38:54.867Z,20.23
2023-05-02T12:39:56.843Z,20.38
2023-05-02T12:40:58.370Z,21.16
2023-05-02T12:41:59.842Z,21.71
2023-05-02T12:43:04.269Z,21.26
2023-05-02T12:44:07.183Z,20.37
2023-05-02T12:45:18.577Z,20.26
2023-05-02T12:46:20.566Z,20.26
2023-05-02T12:47:22.884Z,20.33
2023-05-02T12:48:26.442Z,20.64
2023-05-02T12:49:27.935Z,20.27
2023-05-02T12:50:37.071Z,19.52
2023-05-02T12:51:39.998Z,19.37
2023-05-02T12:52:57.448Z,19.52
2023-05-02T12:53:58.961Z,20.13
2023-05-02T12:55:19.820Z,20.73
2023-05-02T12:56:21.356Z,20.60
2023-05-02T12:57:24.821Z,21.03
2023-05-02T12:58:28.480Z,19.95
2023-05-02T12:59:33.251Z,20.71
2023-05-02T13:00:38.915Z,20.52
2023-05-02T13:01:40.494Z,20.25
2023-05-02T13:02:42.116Z,20.64
2023-05-02T13:03:44.094Z,21.58
2023-05-02T13:04:45.612Z,21.48
2023-05-02T13:05:46.957Z,21.75
2023-05-02T13:06:48.380Z,22.01
2023-05-02T13:07:50.050Z,21.69
2023-05-02T13:08:51.528Z,21.25
2023-05-02T13:09:52.934Z,20.69
2023-05-02T13:10:54.770Z,20.41
2023-05-02T13:11:56.947Z,20.67
2023-05-02T13:12:58.375Z,20.87
2023-05-02T13:14:01.472Z,20.45
2023-05-02T13:15:07.137Z,20.21
2023-05-02T13:16:09.002Z,20.02
2023-05-02T13:17:10.737Z,20.90
2023-05-02T13:18:12.365Z,21.33
2023-05-02T13:19:13.848Z,20.93
2023-05-02T13:20:15.537Z,20.58
2023-05-02T13:21:16.907Z,20.64
2023-05-02T13:22:18.246Z,20.64
2023-05-02T13:23:19.689Z,20.99
2023-05-02T13:24:21.114Z,21.32
2023-05-02T13:25:22.623Z,21.19
2023-05-02T13:26:24.266Z,21.43
2023-05-02T13:27:26.084Z,21.49
2023-05-02T13:28:29.070Z,21.73
2023-05-02T13:29:31.637Z,21.60
2023-05-02T13:30:33.299Z,21.30
2023-05-02T13:31:34.782Z,21.53
2023-05-02T13:32:36.363Z,21.49
2023-05-02T13:33:37.775Z,21.77
2023-05-02T13:34:39.182Z,20.93
2023-05-02T13:35:40.942Z,21.40
2023-05-02T13:36:46.262Z,21.54
2023-05-02T13:37:47.936Z,20.98
2023-05-02T13:38:49.347Z,21.61
2023-05-02T13:39:50.699Z,22.02
2023-05-02T13:40:52.215Z,22.53
2023-05-02T13:41:53.580Z,21.95
2023-05-02T13:42:54.972Z,21.85
2023-05-02T13:43:56.746Z,21.93
2023-05-02T13:44:58.256Z,22.06
2023-05-02T13:46:00.199Z,22.69
2023-05-02T13:47:01.916Z,22.23
2023-05-02T13:48:03.631Z,21.34
2023-05-02T13:49:05.176Z,21.52
2023-05-02T13:50:07.546Z,21.74
2023-05-02T13:51:09.385Z,21.44
2023-05-02T13:52:11.062Z,21.59
2023-05-02T13:53:12.473Z,21.58
2023-05-02T13:54:14.430Z,21.71
2023-05-02T13:55:15.931Z,21.68
2023-05-02T13:56:17.619Z,21.79
2023-05-02T13:57:18.990Z,22.32
2023-05-02T13:58:21.177Z,22.57
2023-05-02T13:59:22.687Z,22.48
2023-05-02T14:00:24.082Z,22.02
2023-05-02T14:01:28.663Z,22.06
2023-05-02T14:02:30.234Z,21.61
2023-05-02T14:03:31.792Z,21.80
2023-05-02T14:04:33.431Z,21.24
2023-05-02T14:05:36.505Z,21.09
2023-05-02T14:06:38.457Z,20.32
2023-05-02T14:07:40.036Z,19.83
2023-05-02T14:08:41.425Z,19.82
2023-05-02T14:09:42.945Z,19.73
2023-05-02T14:10:44.538Z,19.22
2023-05-02T14:11:47.169Z,19.11
2023-05-02T14:12:49.229Z,18.70
2023-05-02T14:13:50.712Z,19.46
2023-05-02T14:14:52.270Z,19.87
2023-05-02T14:15:54.280Z,19.88
2023-05-02T14:16:55.937Z,20.61
2023-05-02T14:17:57.530Z,21.17
2023-05-02T14:18:58.990Z,21.31
2023-05-02T14:20:00.626Z,21.45
2023-05-02T14:21:03.274Z,21.07
2023-05-02T14:22:04.761Z,21.24
2023-05-02T14:23:07.596Z,21.47
2023-05-02T14:24:09.385Z,20.36
2023-05-02T14:25:10.851Z,20.12
2023-05-02T14:26:12.760Z,19.32
2023-05-02T14:27:18.180Z,18.99
2023-05-02T14:28:19.794Z,18.60
2023-05-02T14:29:21.201Z,18.73
2023-05-02T14:30:22.559Z,18.78
2023-05-02T14:31:24.055Z,18.84
2023-05-02T14:32:25.691Z,18.50
2023-05-02T14:33:27.598Z,18.55
2023-05-02T14:34:29.137Z,18.38
2023-05-02T14:35:30.624Z,17.84
2023-05-02T14:36:32.430Z,17.84
2023-05-02T14:37:34.156Z,18.09
2023-05-02T14:38:35.622Z,18.11
2023-05-02T14:39:37.137Z,17.94
2023-05-02T14:40:38.491Z,18.64
2023-05-02T14:41:39.911Z,19.23
2023-05-02T14:42:41.849Z,20.26
2023-05-02T14:43:43.490Z,20.78
2023-05-02T14:44:44.884Z,20.70
2023-05-02T14:45:46.245Z,20.73
2023-05-02T14:46:47.743Z,21.08
2023-05-02T14:47:50.340Z,21.18
2023-05-02T14:48:51.770Z,20.86
2023-05-02T14:49:53.113Z,20.86
2023-05-02T14:50:54.470Z,21.17
2023-05-02T14:51:57.825Z,20.83
2023-05-02T14:52:59.980Z,21.50
2023-05-02T14:54:01.466Z,21.91
2023-05-02T14:55:03.055Z,22.01
2023-05-02T14:56:04.736Z,21.98
2023-05-02T14:57:07.159Z,21.26
2023-05-02T14:58:09.987Z,21.12
2023-05-02T14:59:11.465Z,20.52
2023-05-02T15:00:13.522Z,19.23
2023-05-02T15:01:19.185Z,19.17
2023-05-02T15:02:21.744Z,18.96
2023-05-02T15:03:23.503Z,18.66
2023-05-02T15:04:27.393Z,19.36
2023-05-02T15:05:30.107Z,20.34
2023-05-02T15:06:31.653Z,20.97
2023-05-02T15:07:33.331Z,21.33
2023-05-02T15:08:34.698Z,21.10
2023-05-02T15:09:36.435Z,21.34
2023-05-02T15:10:39.041Z,21.44
2023-05-02T15:11:40.456Z,20.99
2023-05-02T15:12:43.142Z,21.40
2023-05-02T15:13:44.662Z,22.05
2023-05-02T15:14:46.002Z,21.51
2023-05-02T15:15:47.631Z,20.92
2023-05-02T15:16:49.225Z,21.06
2023-05-02T15:17:51.694Z,21.50
2023-05-02T15:18:53.126Z,21.27
2023-05-02T15:19:56.362Z,21.43
2023-05-02T15:20:59.344Z,21.59
2023-05-02T15:22:01.641Z,21.02
2023-05-02T15:23:03.806Z,20.60
2023-05-02T15:24:06.086Z,20.73
2023-05-02T15:25:08.319Z,20.74
2023-05-02T15:26:09.695Z,20.36
2023-05-02T15:27:11.851Z,20.09
2023-05-02T15:28:13.349Z,19.67
2023-05-02T15:29:14.743Z,19.72
2023-05-02T15:30:17.860Z,19.35
2023-05-02T15:31:19.746Z,19.80
2023-05-02T15:32:22.107Z,20.06
2023-05-02T15:33:23.682Z,19.99
2023-05-02T15:34:25.080Z,20.15
2023-05-02T15:35:26.461Z,20.79
2023-05-02T15:36:29.756Z,21.13
2023-05-02T15:37:31.240Z,20.96
2023-05-02T15:38:34.674Z,20.96
2023-05-02T15:39:36.076Z,21.04
2023-05-02T15:40:37.526Z,20.95
2023-05-02T15:41:38.939Z,21.06
2023-05-02T15:42:40.526Z,21.28
2023-05-02T15:43:42.204Z,20.97
2023-05-02T15:44:43.665Z,20.82
2023-05-02T15:45:45.500Z,21.04
2023-05-02T15:46:47.226Z,20.68
2023-05-02T15:47:48.963Z,20.64
2023-05-02T15:48:50.850Z,21.11
2023-05-02T15:49:53.900Z,21.16
2023-05-02T15:50:55.713Z,20.56
2023-05-02T15:51:57.184Z,20.79
2023-05-02T15:52:58.623Z,21.02
2023-05-02T15:53:59.961Z,20.77
2023-05-02T15:55:01.586Z,20.37
2023-05-02T15:56:03.118Z,19.96
2023-05-02T15:57:05.035Z,20.55
2023-05-02T15:58:06.602Z,20.95
2023-05-02T15:59:08.330Z,21.40
2023-05-02T16:00:16.546Z,21.20
2023-05-02T16:01:17.998Z,21.06
2023-05-02T16:02:19.506Z,20.85
2023-05-02T16:03:20.934Z,20.81
2023-05-02T16:04:22.437Z,20.74
2023-05-02T16:05:24.042Z,20.64
2023-05-02T16:06:25.779Z,21.09
2023-05-02T16:07:27.288Z,21.04
2023-05-02T16:08:28.773Z,21.56
2023-05-02T16:09:31.158Z,21.47
2023-05-02T16:10:32.709Z,21.81
2023-05-02T16:11:34.190Z,21.60
2023-05-02T16:12:35.594Z,22.18
2023-05-02T16:13:37.176Z,22.15
2023-05-02T16:14:38.571Z,21.80
2023-05-02T16:15:39.997Z,22.02
2023-05-02T16:16:41.429Z,22.02
2023-05-02T16:17:43.082Z,21.75
2023-05-02T16:18:44.570Z,21.48
2023-05-02T16:19:45.995Z,21.20
2023-05-02T16:20:49.669Z,21.00
2023-05-02T16:21:51.503Z,20.98
2023-05-02T16:22:52.867Z,20.84
2023-05-02T16:23:55.014Z,20.74
2023-05-02T16:24:56.548Z,19.95
2023-05-02T16:25:59.427Z,20.13
2023-05-02T16:27:01.808Z,20.28
2023-05-02T16:28:03.390Z,20.59
2023-05-02T16:29:04.883Z,20.52
2023-05-02T16:30:07.313Z,20.47
2023-05-02T16:31:11.342Z,20.65
2023-05-02T16:32:13.413Z,20.19
2023-05-02T16:33:14.913Z,20.53
2023-05-02T16:34:16.553Z,20.52
2023-05-02T16:35:19.768Z,20.26
2023-05-02T16:36:21.372Z,20.01
2023-05-02T16:37:22.822Z,20.29
2023-05-02T16:38:24.360Z,20.73
2023-05-02T16:39:26.611Z,20.41
2023-05-02T16:40:28.509Z,20.47
2023-05-02T16:41:29.970Z,20.37
2023-05-02T16:42:32.016Z,20.27
2023-05-02T16:43:33.866Z,19.82
2023-05-02T16:44:35.542Z,19.80
2023-05-02T16:45:37.225Z,20.08
2023-05-02T16:46:39.065Z,19.95
2023-05-02T16:47:41.054Z,19.83
2023-05-02T16:48:42.479Z,19.23
2023-05-02T16:49:43.909Z,19.31
2023-05-02T16:50:45.303Z,18.53
2023-05-02T16:51:51.396Z,18.68
2023-05-02T16:52:52.746Z,18.87
2023-05-02T16:53:54.346Z,19.07
2023-05-02T16:54:55.797Z,19.01
2023-05-02T16:55:57.351Z,18.86
2023-05-02T16:57:02.461Z,18.83
2023-05-02T16:58:04.047Z,18.75
2023-05-02T16:59:05.598Z,18.26
2023-05-02T17:00:10.394Z,18.52
2023-05-02T17:01:11.894Z,18.66
2023-05-02T17:02:17.222Z,18.07
2023-05-02T17:03:18.826Z,18.12
2023-05-02T17:04:21.554Z,18.29
